createdAt,value
2019-03-26T00:01:15.417Z,2.69
2019-03-26T00:02:51.336Z,2.67
2019-03-26T00:04:27.688Z,2.65
2019-03-26T00:06:03.494Z,2.72
2019-03-26T00:07:39.192Z,2.70
2019-03-26T00:09:18.094Z,2.69
2019-03-26T00:11:03.710Z,2.68
2019-03-26T00:12:40.808Z,2.68
2019-03-26T00:14:16.502Z,2.67
2019-03-26T00:15:52.237Z,2.68
2019-03-26T00:17:30.819Z,2.72
2019-03-26T00:19:09.274Z,2.70
2019-03-26T00:20:44.254Z,2.70
2019-03-26T00:22:19.844Z,2.69
2019-03-26T00:23:57.083Z,2.70
2019-03-26T00:25:35.464Z,2.68
2019-03-26T00:27:11.387Z,2.72
2019-03-26T00:28:47.452Z,2.71
2019-03-26T00:30:23.248Z,2.69
2019-03-26T00:31:59.093Z,2.72
2019-03-26T00:33:36.900Z,2.71
2019-03-26T00:35:13.866Z,2.71
2019-03-26T00:36:50.156Z,2.70
2019-03-26T00:38:28.125Z,2.74
2019-03-26T00:40:11.863Z,2.71
2019-03-26T00:41:50.434Z,2.70
2019-03-26T00:43:26.764Z,2.70
2019-03-26T00:45:04.508Z,2.69
2019-03-26T00:46:42.810Z,2.72
2019-03-26T00:48:18.422Z,2.76
2019-03-26T00:49:57.601Z,2.76
2019-03-26T00:51:33.538Z,2.69
2019-03-26T00:53:09.327Z,2.68
2019-03-26T00:54:47.431Z,2.68
2019-03-26T00:56:25.143Z,2.68
2019-03-26T00:58:04.306Z,2.67
2019-03-26T00:59:41.342Z,2.68
2019-03-26T01:01:39.386Z,2.69
2019-03-26T01:03:15.963Z,2.68
2019-03-26T01:05:03.388Z,2.69
2019-03-26T01:06:40.302Z,2.71
2019-03-26T01:08:26.046Z,2.72
2019-03-26T01:10:26.749Z,2.72
2019-03-26T01:12:11.642Z,2.70
2019-03-26T01:13:53.453Z,2.68
2019-03-26T01:15:34.058Z,2.72
2019-03-26T01:17:10.737Z,2.69
2019-03-26T01:18:48.191Z,2.66
2019-03-26T01:20:28.841Z,2.68
2019-03-26T01:22:08.189Z,2.69
2019-03-26T01:23:45.151Z,2.66
2019-03-26T01:25:30.798Z,2.67
2019-03-26T01:27:04.750Z,2.68
2019-03-26T01:28:41.180Z,2.69
2019-03-26T01:30:22.827Z,2.70
2019-03-26T01:32:02.660Z,2.71
2019-03-26T01:33:40.194Z,2.69
2019-03-26T01:35:17.102Z,2.70
2019-03-26T01:36:53.245Z,2.73
2019-03-26T01:38:34.670Z,2.70
2019-03-26T01:40:15.447Z,2.71
2019-03-26T01:41:52.165Z,2.72
2019-03-26T01:43:28.938Z,2.70
2019-03-26T01:45:12.601Z,2.70
2019-03-26T01:46:52.159Z,2.69
2019-03-26T01:48:28.782Z,2.66
2019-03-26T01:50:04.836Z,2.65
2019-03-26T01:51:40.860Z,2.69
2019-03-26T01:53:20.211Z,2.69
2019-03-26T01:54:59.280Z,2.69
2019-03-26T01:56:37.142Z,2.69
2019-03-26T01:58:14.177Z,2.65
2019-03-26T01:59:51.804Z,2.66
2019-03-26T02:01:28.817Z,2.67
2019-03-26T02:03:05.469Z,2.67
2019-03-26T02:04:44.512Z,2.69
2019-03-26T02:06:27.559Z,2.69
2019-03-26T02:08:15.971Z,2.70
2019-03-26T02:09:52.651Z,2.69
2019-03-26T02:11:30.402Z,2.68
2019-03-26T02:13:20.070Z,2.68
2019-03-26T02:14:59.450Z,2.65
2019-03-26T02:16:40.434Z,2.68
2019-03-26T02:18:19.143Z,2.69
2019-03-26T02:20:00.813Z,2.66
2019-03-26T02:21:37.846Z,2.65
2019-03-26T02:23:16.297Z,2.63
2019-03-26T02:24:56.588Z,2.65
2019-03-26T02:26:34.034Z,2.66
2019-03-26T02:28:15.207Z,2.62
2019-03-26T02:29:51.758Z,2.66
2019-03-26T02:31:32.857Z,2.63
2019-03-26T02:33:09.304Z,2.65
2019-03-26T02:34:47.559Z,2.61
2019-03-26T02:36:27.034Z,2.60
2019-03-26T02:38:03.617Z,2.60
2019-03-26T02:39:39.851Z,2.62
2019-03-26T02:41:19.304Z,2.59
2019-03-26T02:43:08.782Z,2.60
2019-03-26T02:44:43.018Z,2.57
2019-03-26T02:46:37.183Z,2.58
2019-03-26T02:48:14.630Z,2.53
2019-03-26T02:49:53.280Z,2.53
2019-03-26T02:51:29.420Z,2.53
2019-03-26T02:53:09.422Z,2.58
2019-03-26T02:54:47.584Z,2.54
2019-03-26T02:56:29.414Z,2.55
2019-03-26T02:58:07.022Z,2.54
2019-03-26T02:59:43.537Z,2.51
2019-03-26T03:01:19.599Z,2.52
2019-03-26T03:02:55.660Z,2.50
2019-03-26T03:04:34.075Z,2.47
2019-03-26T03:06:11.421Z,2.48
2019-03-26T03:07:47.674Z,2.53
2019-03-26T03:09:23.833Z,2.53
2019-03-26T03:11:02.656Z,2.51
2019-03-26T03:12:38.782Z,2.51
2019-03-26T03:14:14.991Z,2.45
2019-03-26T03:15:51.015Z,2.45
2019-03-26T03:17:27.462Z,2.39
2019-03-26T03:19:05.593Z,2.38
2019-03-26T03:20:46.102Z,2.32
2019-03-26T03:22:22.864Z,2.26
2019-03-26T03:24:02.421Z,2.27
2019-03-26T03:25:38.410Z,2.22
2019-03-26T03:27:17.254Z,2.21
2019-03-26T03:28:54.323Z,2.21
2019-03-26T03:30:30.711Z,2.18
2019-03-26T03:32:07.653Z,2.17
2019-03-26T03:33:44.115Z,2.13
2019-03-26T03:35:21.769Z,2.13
2019-03-26T03:36:57.646Z,2.15
2019-03-26T03:38:34.089Z,2.12
2019-03-26T03:40:09.957Z,2.10
2019-03-26T03:41:46.560Z,2.10
2019-03-26T03:43:23.868Z,2.12
2019-03-26T03:45:02.367Z,2.12
2019-03-26T03:46:38.792Z,2.12
2019-03-26T03:48:14.710Z,2.16
2019-03-26T03:49:51.765Z,2.12
2019-03-26T03:51:29.602Z,2.11
2019-03-26T03:53:07.877Z,2.12
2019-03-26T03:54:46.428Z,2.11
2019-03-26T03:56:22.347Z,2.12
2019-03-26T03:58:00.180Z,2.10
2019-03-26T03:59:37.518Z,2.10
2019-03-26T04:01:17.077Z,2.12
2019-03-26T04:02:53.423Z,2.11
2019-03-26T04:04:34.690Z,2.13
2019-03-26T04:06:11.819Z,2.11
2019-03-26T04:07:47.702Z,2.09
2019-03-26T04:09:24.300Z,2.12
2019-03-26T04:11:00.271Z,2.08
2019-03-26T04:12:35.933Z,2.06
2019-03-26T04:14:12.422Z,2.03
2019-03-26T04:15:48.440Z,2.05
2019-03-26T04:17:26.969Z,2.10
2019-03-26T04:19:06.836Z,2.07
2019-03-26T04:20:42.689Z,2.06
2019-03-26T04:22:19.782Z,2.09
2019-03-26T04:23:59.048Z,2.04
2019-03-26T04:25:34.727Z,2.01
2019-03-26T04:27:10.706Z,2.00
2019-03-26T04:28:48.118Z,1.96
2019-03-26T04:30:32.853Z,1.99
2019-03-26T04:32:09.140Z,2.03
2019-03-26T04:33:48.126Z,2.00
2019-03-26T04:35:24.341Z,2.00
2019-03-26T04:37:00.036Z,2.00
2019-03-26T04:38:38.667Z,2.02
2019-03-26T04:40:15.319Z,2.00
2019-03-26T04:41:52.361Z,1.98
2019-03-26T04:43:29.349Z,1.95
2019-03-26T04:45:07.652Z,1.95
2019-03-26T04:46:44.662Z,1.90
2019-03-26T04:48:23.031Z,1.98
2019-03-26T04:50:02.190Z,1.96
2019-03-26T04:51:45.215Z,1.99
2019-03-26T04:53:23.328Z,1.90
2019-03-26T04:55:03.575Z,1.98
2019-03-26T04:56:39.920Z,1.94
2019-03-26T04:58:16.678Z,1.91
2019-03-26T04:59:54.816Z,1.92
2019-03-26T05:01:31.305Z,1.92
2019-03-26T05:03:08.603Z,1.94
2019-03-26T05:04:45.432Z,1.92
2019-03-26T05:06:21.226Z,1.87
2019-03-26T05:07:57.794Z,1.88
2019-03-26T05:09:33.747Z,1.90
2019-03-26T05:11:09.501Z,1.92
2019-03-26T05:12:45.354Z,1.95
2019-03-26T05:14:21.657Z,1.92
2019-03-26T05:15:58.152Z,1.92
2019-03-26T05:17:37.451Z,1.91
2019-03-26T05:19:13.753Z,1.91
2019-03-26T05:20:49.492Z,1.91
2019-03-26T05:22:25.388Z,1.89
2019-03-26T05:24:01.754Z,1.86
2019-03-26T05:25:38.095Z,1.91
2019-03-26T05:27:16.268Z,1.90
2019-03-26T05:28:52.180Z,1.92
2019-03-26T05:30:33.281Z,1.95
2019-03-26T05:32:09.282Z,1.92
2019-03-26T05:33:45.241Z,1.88
2019-03-26T05:35:22.208Z,1.87
2019-03-26T05:36:59.231Z,1.90
2019-03-26T05:38:35.656Z,1.87
2019-03-26T05:40:15.569Z,1.87
2019-03-26T05:41:51.567Z,1.83
2019-03-26T05:43:27.899Z,1.87
2019-03-26T05:45:13.469Z,1.85
2019-03-26T05:46:50.601Z,1.87
2019-03-26T05:48:38.600Z,1.84
2019-03-26T05:50:19.427Z,1.88
2019-03-26T05:52:00.344Z,1.89
2019-03-26T05:53:38.367Z,1.88
2019-03-26T05:55:18.103Z,1.88
2019-03-26T05:57:02.691Z,1.87
2019-03-26T05:58:53.482Z,1.86
2019-03-26T06:00:31.750Z,1.87
2019-03-26T06:02:15.249Z,1.87
2019-03-26T06:04:36.407Z,1.85
2019-03-26T06:06:39.224Z,1.82
2019-03-26T06:08:43.553Z,1.86
2019-03-26T06:10:40.776Z,1.83
2019-03-26T06:12:21.984Z,1.85
2019-03-26T06:14:10.054Z,1.90
2019-03-26T06:16:03.839Z,1.89
2019-03-26T06:18:06.214Z,1.92
2019-03-26T06:19:55.034Z,1.87
2019-03-26T06:21:33.425Z,1.86
2019-03-26T06:23:25.300Z,1.91
2019-03-26T06:25:07.817Z,1.91
2019-03-26T06:27:09.038Z,1.91
2019-03-26T06:29:14.284Z,1.91
2019-03-26T06:30:57.673Z,1.91
2019-03-26T06:32:41.695Z,1.92
2019-03-26T06:34:41.264Z,1.97
2019-03-26T06:36:33.643Z,1.95
2019-03-26T06:38:29.338Z,1.96
2019-03-26T06:40:16.023Z,1.96
2019-03-26T06:42:07.509Z,1.99
2019-03-26T06:43:43.254Z,2.03
2019-03-26T06:45:19.175Z,2.10
2019-03-26T06:46:55.541Z,2.05
2019-03-26T06:48:32.784Z,2.05
2019-03-26T06:50:16.605Z,2.14
2019-03-26T06:51:53.232Z,2.12
2019-03-26T06:53:40.404Z,2.15
2019-03-26T06:55:16.548Z,2.14
2019-03-26T06:56:56.935Z,2.16
2019-03-26T06:58:55.199Z,2.16
2019-03-26T07:00:36.772Z,2.18
2019-03-26T07:02:20.544Z,2.19
2019-03-26T07:03:58.630Z,2.14
2019-03-26T07:05:44.035Z,2.14
2019-03-26T07:07:31.787Z,2.13
2019-03-26T07:09:08.507Z,2.15
2019-03-26T07:10:44.879Z,2.14
2019-03-26T07:12:24.269Z,2.12
2019-03-26T07:14:00.886Z,2.08
2019-03-26T07:15:40.270Z,2.05
2019-03-26T07:17:16.108Z,2.05
2019-03-26T07:18:55.789Z,2.09
2019-03-26T07:20:32.352Z,2.09
2019-03-26T07:22:11.671Z,2.04
2019-03-26T07:23:51.753Z,2.03
2019-03-26T07:25:35.356Z,2.14
2019-03-26T07:27:13.854Z,2.13
2019-03-26T07:28:52.575Z,2.15
2019-03-26T07:30:45.694Z,2.18
2019-03-26T07:32:24.579Z,2.17
2019-03-26T07:34:30.713Z,2.24
2019-03-26T07:36:07.592Z,2.28
2019-03-26T07:37:45.728Z,2.32
2019-03-26T07:39:28.248Z,2.31
2019-03-26T07:41:08.257Z,2.40
2019-03-26T07:42:57.647Z,2.40
2019-03-26T07:45:04.280Z,2.42
2019-03-26T07:47:03.148Z,2.45
2019-03-26T07:51:07.097Z,2.42
2019-03-26T07:53:10.107Z,2.52
2019-03-26T07:55:17.490Z,2.57
2019-03-26T07:57:02.222Z,2.62
2019-03-26T07:58:42.837Z,2.59
2019-03-26T08:00:26.391Z,2.62
2019-03-26T08:02:21.492Z,2.58
2019-03-26T08:03:58.052Z,2.56
2019-03-26T08:05:33.950Z,2.64
2019-03-26T08:07:10.482Z,2.53
2019-03-26T08:08:46.444Z,2.58
2019-03-26T08:10:22.079Z,2.51
2019-03-26T08:11:57.928Z,2.51
2019-03-26T08:13:34.753Z,2.55
2019-03-26T08:15:12.349Z,2.59
2019-03-26T08:16:47.723Z,2.58
2019-03-26T08:18:29.946Z,2.58
2019-03-26T08:20:05.907Z,2.55
2019-03-26T08:21:48.270Z,2.63
2019-03-26T08:23:23.679Z,2.68
2019-03-26T08:24:59.700Z,2.71
2019-03-26T08:26:37.716Z,2.78
2019-03-26T08:28:16.003Z,3.09
2019-03-26T08:29:55.835Z,3.55
2019-03-26T08:31:33.193Z,3.79
2019-03-26T08:33:15.483Z,4.12
2019-03-26T08:34:48.853Z,4.06
2019-03-26T08:36:27.948Z,4.06
2019-03-26T08:38:12.591Z,3.98
2019-03-26T08:39:48.929Z,3.99
2019-03-26T08:41:34.704Z,4.16
2019-03-26T08:43:12.201Z,4.05
2019-03-26T08:44:52.608Z,4.20
2019-03-26T08:46:46.365Z,4.04
2019-03-26T08:48:22.216Z,4.42
2019-03-26T08:49:58.320Z,4.47
2019-03-26T08:51:34.095Z,4.61
2019-03-26T08:53:11.083Z,4.73
2019-03-26T08:54:50.412Z,4.73
2019-03-26T08:56:45.837Z,4.67
2019-03-26T08:58:24.462Z,4.08
2019-03-26T09:00:04.137Z,4.12
2019-03-26T09:01:41.195Z,3.85
2019-03-26T09:03:17.686Z,4.01
2019-03-26T09:04:53.371Z,4.36
2019-03-26T09:06:31.015Z,4.28
2019-03-26T09:08:10.657Z,4.02
2019-03-26T09:09:48.888Z,3.99
2019-03-26T09:11:25.045Z,4.17
2019-03-26T09:13:02.736Z,4.10
2019-03-26T09:14:46.658Z,4.17
2019-03-26T09:16:31.012Z,3.97
2019-03-26T09:18:07.834Z,3.82
2019-03-26T09:19:43.823Z,3.80
2019-03-26T09:21:20.196Z,3.75
2019-03-26T09:23:00.527Z,3.77
2019-03-26T09:24:36.531Z,3.76
2019-03-26T09:26:17.580Z,3.98
2019-03-26T09:27:56.439Z,4.05
2019-03-26T09:29:34.107Z,3.98
2019-03-26T09:31:09.838Z,3.80
2019-03-26T09:32:49.766Z,3.56
2019-03-26T09:34:33.418Z,3.70
2019-03-26T09:36:16.152Z,3.52
2019-03-26T09:37:52.134Z,3.36
2019-03-26T09:39:28.533Z,3.45
2019-03-26T09:41:05.623Z,3.56
2019-03-26T09:42:47.915Z,3.67
2019-03-26T09:44:24.904Z,3.77
2019-03-26T09:46:00.849Z,3.76
2019-03-26T09:47:36.951Z,3.91
2019-03-26T09:49:15.106Z,3.74
2019-03-26T09:50:50.782Z,3.60
2019-03-26T09:52:30.124Z,3.70
2019-03-26T09:54:08.697Z,3.76
2019-03-26T09:55:49.794Z,3.89
2019-03-26T09:57:29.083Z,4.02
2019-03-26T09:59:10.303Z,4.13
2019-03-26T10:00:46.641Z,4.45
2019-03-26T10:02:24.310Z,4.46
2019-03-26T10:04:10.265Z,4.66
2019-03-26T10:05:53.853Z,4.46
2019-03-26T10:07:30.567Z,4.67
2019-03-26T10:09:09.816Z,4.55
2019-03-26T10:10:45.889Z,4.74
2019-03-26T10:12:24.772Z,4.60
2019-03-26T10:14:00.895Z,4.36
2019-03-26T10:15:39.289Z,4.23
2019-03-26T10:17:21.321Z,4.18
2019-03-26T10:18:57.104Z,4.13
2019-03-26T10:20:32.733Z,4.01
2019-03-26T10:22:12.235Z,4.09
2019-03-26T10:23:49.701Z,4.17
2019-03-26T10:25:28.365Z,4.30
2019-03-26T10:27:10.540Z,4.17
2019-03-26T10:28:46.632Z,4.18
2019-03-26T10:30:38.216Z,4.30
2019-03-26T10:32:13.994Z,4.47
2019-03-26T10:33:56.563Z,4.51
2019-03-26T10:35:42.027Z,4.52
2019-03-26T10:37:13.324Z,4.43
2019-03-26T10:38:50.339Z,4.52
2019-03-26T10:40:34.103Z,4.45
2019-03-26T10:42:11.261Z,4.33
2019-03-26T10:43:50.206Z,4.38
2019-03-26T10:45:28.421Z,4.38
2019-03-26T10:47:19.685Z,4.22
2019-03-26T10:49:04.842Z,4.26
2019-03-26T10:50:49.381Z,4.23
2019-03-26T10:52:34.328Z,4.28
2019-03-26T10:54:21.876Z,4.30
2019-03-26T10:56:01.704Z,4.51
2019-03-26T10:57:38.027Z,4.63
2019-03-26T10:59:23.615Z,4.88
2019-03-26T11:01:06.731Z,5.13
2019-03-26T11:02:44.005Z,4.93
2019-03-26T11:04:21.609Z,4.90
2019-03-26T11:06:01.759Z,5.25
2019-03-26T11:07:44.172Z,5.53
2019-03-26T11:09:26.843Z,5.67
2019-03-26T11:11:10.427Z,5.78
2019-03-26T11:12:56.647Z,5.47
2019-03-26T11:14:34.694Z,5.74
2019-03-26T11:16:12.740Z,5.83
2019-03-26T11:17:51.490Z,5.56
2019-03-26T11:19:40.422Z,5.71
2019-03-26T11:21:20.772Z,5.71
2019-03-26T11:22:59.220Z,5.84
2019-03-26T11:24:36.313Z,5.86
2019-03-26T11:26:12.661Z,5.51
2019-03-26T11:28:11.270Z,5.44
2019-03-26T11:29:58.487Z,5.62
2019-03-26T11:31:37.225Z,5.63
2019-03-26T11:33:13.356Z,5.59
2019-03-26T11:34:51.988Z,5.76
2019-03-26T11:36:27.703Z,5.67
2019-03-26T11:38:06.803Z,5.43
2019-03-26T11:39:43.566Z,5.47
2019-03-26T11:41:19.276Z,5.51
2019-03-26T11:43:00.705Z,5.45
2019-03-26T11:44:40.288Z,5.16
2019-03-26T11:46:21.219Z,5.43
2019-03-26T11:47:57.397Z,5.32
2019-03-26T11:49:33.050Z,5.18
2019-03-26T11:51:15.685Z,5.23
2019-03-26T11:52:54.147Z,5.22
2019-03-26T11:54:33.511Z,5.29
2019-03-26T11:56:09.262Z,5.17
2019-03-26T11:57:46.433Z,4.98
2019-03-26T11:59:26.273Z,5.01
2019-03-26T12:01:01.950Z,5.06
2019-03-26T12:02:43.668Z,5.01
2019-03-26T12:04:20.367Z,5.05
2019-03-26T12:05:56.474Z,5.21
2019-03-26T12:07:33.417Z,5.30
2019-03-26T12:09:12.971Z,5.38
2019-03-26T12:11:04.223Z,5.25
2019-03-26T12:12:51.709Z,5.03
2019-03-26T12:14:29.413Z,4.89
2019-03-26T12:16:09.576Z,5.26
2019-03-26T12:17:46.434Z,5.46
2019-03-26T12:19:28.611Z,5.45
2019-03-26T12:21:17.379Z,5.44
2019-03-26T12:22:53.987Z,5.22
2019-03-26T12:24:29.599Z,5.18
2019-03-26T12:26:05.622Z,5.15
2019-03-26T12:27:41.400Z,5.30
2019-03-26T12:29:22.831Z,5.90
2019-03-26T12:30:59.028Z,6.65
2019-03-26T12:32:35.117Z,6.32
2019-03-26T12:34:23.525Z,6.16
2019-03-26T12:36:01.880Z,6.16
2019-03-26T12:37:37.798Z,5.91
2019-03-26T12:39:13.375Z,5.95
2019-03-26T12:40:58.556Z,5.76
2019-03-26T12:42:34.632Z,5.88
2019-03-26T12:44:10.405Z,5.96
2019-03-26T12:45:47.425Z,6.00
2019-03-26T12:47:28.401Z,6.23
2019-03-26T12:49:06.849Z,6.38
2019-03-26T12:50:44.159Z,6.28
2019-03-26T12:52:27.205Z,6.41
2019-03-26T12:54:10.094Z,6.70
2019-03-26T12:55:46.073Z,6.40
2019-03-26T12:57:24.539Z,6.19
2019-03-26T12:59:00.727Z,6.74
2019-03-26T13:00:41.054Z,6.67
2019-03-26T13:02:18.686Z,6.54
2019-03-26T13:04:11.631Z,6.76
2019-03-26T13:05:37.818Z,6.08
2019-03-26T13:07:16.479Z,6.05
2019-03-26T13:08:56.726Z,5.96
2019-03-26T13:10:33.584Z,5.78
2019-03-26T13:12:14.563Z,5.72
2019-03-26T13:13:50.247Z,5.85
2019-03-26T13:15:26.317Z,6.11
2019-03-26T13:17:02.073Z,5.91
2019-03-26T13:18:57.762Z,6.35
2019-03-26T13:20:35.871Z,6.09
2019-03-26T13:22:24.427Z,6.00
2019-03-26T13:23:55.642Z,5.84
2019-03-26T13:25:34.298Z,5.82
2019-03-26T13:27:13.478Z,5.72
2019-03-26T13:28:52.018Z,5.71
2019-03-26T13:30:36.239Z,5.59
2019-03-26T13:32:21.614Z,5.55
2019-03-26T13:34:05.854Z,5.43
2019-03-26T13:35:43.496Z,5.47
2019-03-26T13:37:21.892Z,5.40
2019-03-26T13:38:59.678Z,5.42
2019-03-26T13:40:38.718Z,5.30
2019-03-26T13:42:15.624Z,5.24
2019-03-26T13:43:57.284Z,5.28
2019-03-26T13:45:34.195Z,5.29
2019-03-26T13:47:11.060Z,5.28
2019-03-26T13:48:51.401Z,5.35
2019-03-26T13:50:36.166Z,5.31
2019-03-26T13:52:11.943Z,5.25
2019-03-26T13:53:51.237Z,5.33
2019-03-26T13:55:32.618Z,5.20
2019-03-26T13:57:22.845Z,5.21
2019-03-26T13:59:00.340Z,5.21
2019-03-26T14:00:40.381Z,5.18
2019-03-26T14:02:18.507Z,5.07
2019-03-26T14:03:58.123Z,5.02
2019-03-26T14:05:56.027Z,5.02
2019-03-26T14:07:34.761Z,5.00
2019-03-26T14:09:12.123Z,5.07
2019-03-26T14:10:51.361Z,5.01
2019-03-26T14:12:29.424Z,5.02
2019-03-26T14:14:06.734Z,4.96
2019-03-26T14:15:43.171Z,4.97
2019-03-26T14:17:19.074Z,4.98
2019-03-26T14:19:02.566Z,4.96
2019-03-26T14:20:41.059Z,4.97
2019-03-26T14:22:20.436Z,4.96
2019-03-26T14:24:06.257Z,4.91
2019-03-26T14:25:49.032Z,4.95
2019-03-26T14:27:25.379Z,4.89
2019-03-26T14:29:03.250Z,4.88
2019-03-26T14:30:47.590Z,4.91
2019-03-26T14:32:27.301Z,4.92
2019-03-26T14:34:13.713Z,5.01
2019-03-26T14:35:50.935Z,5.02
2019-03-26T14:37:50.712Z,5.00
2019-03-26T14:39:22.391Z,4.93
2019-03-26T14:41:02.889Z,5.01
2019-03-26T14:42:59.787Z,5.10
2019-03-26T14:44:40.100Z,5.18
2019-03-26T14:46:18.374Z,5.20
2019-03-26T14:47:56.152Z,5.30
2019-03-26T14:49:35.266Z,5.29
2019-03-26T14:51:23.295Z,5.29
2019-03-26T14:52:59.910Z,5.25
2019-03-26T14:54:38.101Z,5.23
2019-03-26T14:56:16.618Z,5.30
2019-03-26T14:57:56.715Z,5.36
2019-03-26T14:59:37.422Z,5.38
2019-03-26T15:01:21.933Z,5.42
2019-03-26T15:02:57.961Z,5.42
2019-03-26T15:04:34.615Z,5.36
2019-03-26T15:06:11.410Z,5.37
2019-03-26T15:07:52.792Z,5.39
2019-03-26T15:09:37.904Z,5.40
2019-03-26T15:11:23.036Z,5.35
2019-03-26T15:12:59.865Z,5.35
2019-03-26T15:14:49.991Z,5.38
2019-03-26T15:16:24.651Z,5.37
2019-03-26T15:18:08.337Z,5.32
2019-03-26T15:19:46.144Z,5.33
2019-03-26T15:21:22.946Z,5.25
2019-03-26T15:22:59.118Z,5.18
2019-03-26T15:24:41.355Z,5.16
2019-03-26T15:26:18.768Z,5.15
2019-03-26T15:27:55.676Z,5.12
2019-03-26T15:29:37.129Z,5.14
2019-03-26T15:31:13.457Z,5.10
2019-03-26T15:32:57.097Z,5.08
2019-03-26T15:34:36.470Z,5.16
2019-03-26T15:36:13.534Z,5.20
2019-03-26T15:38:01.270Z,5.17
2019-03-26T15:39:38.352Z,5.21
2019-03-26T15:41:30.175Z,5.20
2019-03-26T15:43:05.136Z,5.20
2019-03-26T15:44:51.366Z,5.14
2019-03-26T15:46:37.178Z,5.09
2019-03-26T15:48:39.185Z,5.09
2019-03-26T15:50:23.417Z,5.06
2019-03-26T15:52:07.639Z,5.00
2019-03-26T15:53:47.942Z,4.95
2019-03-26T15:55:28.395Z,4.97
2019-03-26T15:57:08.869Z,4.93
2019-03-26T15:58:52.940Z,4.91
2019-03-26T16:00:39.701Z,4.92
2019-03-26T16:02:19.219Z,4.92
2019-03-26T16:03:58.664Z,4.96
2019-03-26T16:05:43.684Z,4.96
2019-03-26T16:07:19.691Z,4.90
2019-03-26T16:09:00.429Z,4.80
2019-03-26T16:10:38.639Z,4.79
2019-03-26T16:12:19.174Z,4.80
2019-03-26T16:14:02.546Z,4.82
2019-03-26T16:15:44.514Z,4.79
2019-03-26T16:17:18.719Z,4.77
2019-03-26T16:19:02.054Z,4.80
2019-03-26T16:20:41.395Z,4.82
2019-03-26T16:22:26.646Z,4.83
2019-03-26T16:24:04.832Z,4.83
2019-03-26T16:25:47.754Z,4.78
2019-03-26T16:27:23.741Z,4.75
2019-03-26T16:29:05.876Z,4.73
2019-03-26T16:30:45.693Z,4.76
2019-03-26T16:32:22.753Z,4.73
2019-03-26T16:33:59.756Z,4.72
2019-03-26T16:35:40.498Z,4.72
2019-03-26T16:37:16.678Z,4.70
2019-03-26T16:38:57.934Z,4.69
2019-03-26T16:40:34.967Z,4.69
2019-03-26T16:42:16.051Z,4.69
2019-03-26T16:43:52.611Z,4.71
2019-03-26T16:45:28.847Z,4.71
2019-03-26T16:47:12.234Z,4.67
2019-03-26T16:48:48.916Z,4.65
2019-03-26T16:50:38.838Z,4.64
2019-03-26T16:52:38.182Z,4.69
2019-03-26T16:54:15.317Z,4.64
2019-03-26T16:55:51.754Z,4.64
2019-03-26T16:57:37.613Z,4.60
2019-03-26T16:59:16.844Z,4.59
2019-03-26T17:00:55.516Z,4.60
2019-03-26T17:02:35.224Z,4.60
2019-03-26T17:04:23.341Z,4.58
2019-03-26T17:06:00.619Z,4.59
2019-03-26T17:07:44.458Z,4.62
2019-03-26T17:09:22.880Z,4.59
2019-03-26T17:11:05.296Z,4.60
2019-03-26T17:12:44.090Z,4.60
2019-03-26T17:14:20.077Z,4.61
2019-03-26T17:16:05.873Z,4.64
2019-03-26T17:17:43.197Z,4.67
2019-03-26T17:19:20.995Z,4.64
2019-03-26T17:20:59.898Z,4.65
2019-03-26T17:22:38.043Z,4.65
2019-03-26T17:24:21.047Z,4.62
2019-03-26T17:25:58.209Z,4.57
2019-03-26T17:27:39.700Z,4.59
2019-03-26T17:29:24.782Z,4.58
2019-03-26T17:31:16.083Z,4.55
2019-03-26T17:32:53.031Z,4.58
2019-03-26T17:34:35.487Z,4.52
2019-03-26T17:36:24.196Z,4.52
2019-03-26T17:38:21.695Z,4.53
2019-03-26T17:40:02.449Z,4.60
2019-03-26T17:41:45.369Z,4.55
2019-03-26T17:43:27.033Z,4.53
2019-03-26T17:45:04.949Z,4.52
2019-03-26T17:46:48.049Z,4.48
2019-03-26T17:48:24.042Z,4.50
2019-03-26T17:50:02.528Z,4.52
2019-03-26T17:51:41.136Z,4.51
2019-03-26T17:53:22.160Z,4.52
2019-03-26T17:55:04.302Z,4.49
2019-03-26T17:56:48.141Z,4.47
2019-03-26T17:58:30.336Z,4.43
2019-03-26T18:00:15.446Z,4.46
2019-03-26T18:01:54.389Z,4.46
2019-03-26T18:03:33.246Z,4.45
2019-03-26T18:05:25.331Z,4.43
2019-03-26T18:07:11.384Z,4.43
2019-03-26T18:09:00.264Z,4.40
2019-03-26T18:10:47.244Z,4.39
2019-03-26T18:12:32.639Z,4.41
2019-03-26T18:14:23.072Z,4.44
2019-03-26T18:16:02.308Z,4.44
2019-03-26T18:17:40.603Z,4.48
2019-03-26T18:19:20.970Z,4.44
2019-03-26T18:21:04.380Z,4.47
2019-03-26T18:22:40.477Z,4.49
2019-03-26T18:24:35.548Z,4.51
2019-03-26T18:26:29.444Z,4.52
2019-03-26T18:28:31.949Z,4.47
2019-03-26T18:30:21.495Z,4.47
2019-03-26T18:32:07.109Z,4.47
2019-03-26T18:33:54.333Z,4.48
2019-03-26T18:35:33.262Z,4.44
2019-03-26T18:37:11.764Z,4.45
2019-03-26T18:38:59.800Z,4.43
2019-03-26T18:40:42.182Z,4.45
2019-03-26T18:42:28.282Z,4.47
2019-03-26T18:44:08.759Z,4.49
2019-03-26T18:45:49.687Z,4.46
2019-03-26T18:47:25.393Z,4.46
2019-03-26T18:49:07.768Z,4.43
2019-03-26T18:50:45.582Z,4.44
2019-03-26T18:52:26.141Z,4.44
2019-03-26T18:54:12.615Z,4.44
2019-03-26T18:56:00.107Z,4.44
2019-03-26T18:57:38.596Z,4.40
2019-03-26T18:59:30.469Z,4.43
2019-03-26T19:01:16.953Z,4.44
2019-03-26T19:02:58.455Z,4.41
2019-03-26T19:04:39.615Z,4.42
2019-03-26T19:06:22.697Z,4.41
2019-03-26T19:08:23.241Z,4.40
2019-03-26T19:10:10.034Z,4.37
2019-03-26T19:11:58.864Z,4.38
2019-03-26T19:13:42.576Z,4.38
2019-03-26T19:15:25.459Z,4.40
2019-03-26T19:17:07.939Z,4.40
2019-03-26T19:18:56.410Z,4.41
2019-03-26T19:20:38.053Z,4.38
2019-03-26T19:22:28.457Z,4.37
2019-03-26T19:24:09.834Z,4.37
2019-03-26T19:25:51.597Z,4.36
2019-03-26T19:27:41.068Z,4.32
2019-03-26T19:29:19.202Z,4.34
2019-03-26T19:31:00.934Z,4.29
2019-03-26T19:32:45.031Z,4.30
2019-03-26T19:34:34.390Z,4.26
2019-03-26T19:36:19.562Z,4.28
2019-03-26T19:38:06.414Z,4.28
2019-03-26T19:39:42.578Z,4.27
2019-03-26T19:41:20.638Z,4.26
2019-03-26T19:43:10.692Z,4.26
2019-03-26T19:44:44.802Z,4.28
2019-03-26T19:46:25.361Z,4.26
2019-03-26T19:48:06.509Z,4.25
2019-03-26T19:49:44.226Z,4.22
2019-03-26T19:51:26.808Z,4.22
2019-03-26T19:53:04.330Z,4.21
2019-03-26T19:54:44.419Z,4.21
2019-03-26T19:56:23.286Z,4.20
2019-03-26T19:58:06.363Z,4.23
2019-03-26T19:59:46.982Z,4.23
2019-03-26T20:01:25.169Z,4.21
2019-03-26T20:03:14.944Z,4.27
2019-03-26T20:04:52.456Z,4.22
2019-03-26T20:06:33.437Z,4.20
2019-03-26T20:10:03.433Z,4.24
2019-03-26T20:11:47.406Z,4.22
2019-03-26T20:13:28.102Z,4.19
2019-03-26T20:15:16.256Z,4.22
2019-03-26T20:16:57.019Z,4.22
2019-03-26T20:18:37.048Z,4.24
2019-03-26T20:20:10.334Z,4.25
2019-03-26T20:21:50.076Z,4.22
2019-03-26T20:23:25.771Z,4.20
2019-03-26T20:25:01.867Z,4.20
2019-03-26T20:26:44.392Z,4.20
2019-03-26T20:28:36.506Z,4.18
2019-03-26T20:30:22.481Z,4.20
2019-03-26T20:32:10.496Z,4.20
2019-03-26T20:33:51.997Z,4.26
2019-03-26T20:35:29.429Z,4.23
2019-03-26T20:37:11.467Z,4.22
2019-03-26T20:38:51.429Z,4.24
2019-03-26T20:40:32.119Z,4.25
2019-03-26T20:42:12.174Z,4.24
2019-03-26T20:43:53.042Z,4.28
2019-03-26T20:45:37.833Z,4.23
2019-03-26T20:47:13.877Z,4.26
2019-03-26T20:48:52.909Z,4.24
2019-03-26T20:50:36.157Z,4.24
2019-03-26T20:52:11.309Z,4.23
2019-03-26T20:53:53.045Z,4.18
2019-03-26T20:55:53.689Z,4.16
2019-03-26T20:57:19.492Z,4.16
2019-03-26T20:59:01.693Z,4.16
2019-03-26T21:00:40.954Z,4.13
2019-03-26T21:02:21.864Z,4.12
2019-03-26T21:04:03.152Z,4.14
2019-03-26T21:06:00.491Z,4.10
2019-03-26T21:07:41.742Z,4.12
2019-03-26T21:09:20.258Z,4.09
2019-03-26T21:11:04.011Z,4.08
2019-03-26T21:12:52.216Z,4.05
2019-03-26T21:14:43.931Z,4.08
2019-03-26T21:16:25.255Z,4.09
2019-03-26T21:18:06.177Z,4.05
2019-03-26T21:19:54.567Z,4.05
2019-03-26T21:21:36.238Z,4.06
2019-03-26T21:23:12.141Z,4.10
2019-03-26T21:24:51.681Z,4.13
2019-03-26T21:26:33.221Z,4.11
2019-03-26T21:28:11.739Z,4.15
2019-03-26T21:29:52.601Z,4.16
2019-03-26T21:31:31.856Z,4.20
2019-03-26T21:33:09.257Z,4.13
2019-03-26T21:34:47.505Z,4.09
2019-03-26T21:36:36.162Z,4.11
2019-03-26T21:38:18.431Z,4.09
2019-03-26T21:39:59.319Z,4.04
2019-03-26T21:41:40.304Z,4.01
2019-03-26T21:43:25.391Z,3.99
2019-03-26T21:45:05.699Z,3.98
2019-03-26T21:46:49.165Z,3.99
2019-03-26T21:48:43.121Z,3.99
2019-03-26T21:50:24.561Z,3.98
2019-03-26T21:52:11.089Z,4.02
2019-03-26T21:53:53.562Z,4.07
2019-03-26T21:55:34.831Z,4.00
2019-03-26T21:57:11.707Z,3.98
2019-03-26T21:58:52.481Z,3.94
2019-03-26T22:00:31.057Z,3.93
2019-03-26T22:02:07.423Z,3.95
2019-03-26T22:03:44.174Z,3.94
2019-03-26T22:05:27.007Z,4.00
2019-03-26T22:07:06.273Z,4.00
2019-03-26T22:08:42.238Z,4.02
2019-03-26T22:10:39.726Z,3.95
2019-03-26T22:12:24.587Z,3.95
2019-03-26T22:14:17.341Z,3.99
2019-03-26T22:15:48.458Z,3.95
2019-03-26T22:17:28.868Z,4.02
2019-03-26T22:19:10.218Z,3.97
2019-03-26T22:20:46.615Z,3.92
2019-03-26T22:22:23.186Z,3.91
2019-03-26T22:23:59.571Z,3.96
2019-03-26T22:25:35.388Z,3.91